Time;durP1;ratioP1;P1;durP2;ratioP2;P2;SDS_P1;SDS_P2;PMS_P1;PMS_P2;Temp;Humidity;BMP_temperature;BMP_pressure;BME280_temperature;BME280_humidity;BME280_pressure;Samples;Min_cycle;Max_cycle;Signal;HPM_P1;HPM_P2
2022/03/29 00:01:54;;;;;;;26.05;14.30;;;;;;;;;;4973855;28;20039;-66
2022/03/29 00:04:20;;;;;;;26.25;14.48;;;;;;;;;;4973136;28;20043;-66
2022/03/29 00:06:47;;;;;;;24.60;14.68;;;;;;;;;;4972348;28;20425;-66
2022/03/29 00:09:13;;;;;;;23.25;14.60;;;;;;;;;;4973876;28;20050;-66
2022/03/29 00:11:39;;;;;;;20.10;13.40;;;;;;;;;;4973479;28;20049;-66
2022/03/29 00:14:06;;;;;;;22.05;13.75;;;;;;;;;;4973681;28;20046;-66
2022/03/29 00:16:32;;;;;;;20.63;14.05;;;;;;;;;;4973531;28;20227;-66
2022/03/29 00:18:58;;;;;;;20.80;14.05;;;;;;;;;;4973370;28;20042;-66
2022/03/29 00:21:24;;;;;;;24.38;15.18;;;;;;;;;;4973520;28;20042;-66
2022/03/29 00:23:50;;;;;;;22.13;13.85;;;;;;;;;;4973557;28;20097;-66
2022/03/29 00:26:16;;;;;;;29.63;15.15;;;;;;;;;;4981089;28;20053;-66
2022/03/29 00:28:42;;;;;;;27.48;15.40;;;;;;;;;;4992976;28;20042;-66
2022/03/29 00:31:09;;;;;;;22.15;15.60;;;;;;;;;;4992559;28;20100;-66
2022/03/29 00:33:35;;;;;;;23.55;16.38;;;;;;;;;;4991742;28;20479;-66
2022/03/29 00:36:01;;;;;;;23.17;16.08;;;;;;;;;;4992888;28;20043;-66
2022/03/29 00:38:27;;;;;;;26.05;17.50;;;;;;;;;;4992981;28;20426;-66
2022/03/29 00:40:53;;;;;;;27.33;17.15;;;;;;;;;;4992245;28;20157;-66
2022/03/29 00:43:19;;;;;;;27.27;17.35;;;;;;;;;;4992537;28;20057;-66
2022/03/29 00:45:45;;;;;;;28.45;18.80;;;;;;;;;;4992394;28;20442;-66
2022/03/29 00:48:13;;;;;;;27.52;17.25;;;;;;;;;;4990831;28;20050;-66
2022/03/29 00:50:39;;;;;;;24.65;16.65;;;;;;;;;;4992993;28;20130;-66
2022/03/29 00:53:06;;;;;;;28.80;17.83;;;;;;;;;;4992631;28;20388;-66
2022/03/29 00:55:32;;;;;;;26.00;16.98;;;;;;;;;;4992169;28;20046;-66
2022/03/29 00:57:59;;;;;;;26.10;16.77;;;;;;;;;;4992365;28;20042;-66
2022/03/29 01:00:27;;;;;;;27.67;17.77;;;;;;;;;;4991387;28;20038;-66
2022/03/29 01:02:53;;;;;;;26.92;18.02;;;;;;;;;;4992708;28;20042;-66
2022/03/29 01:05:19;;;;;;;25.38;17.08;;;;;;;;;;4990570;28;20704;-67
2022/03/29 01:07:45;;;;;;;26.42;18.23;;;;;;;;;;4992424;28;20046;-66
2022/03/29 01:10:11;;;;;;;27.55;17.73;;;;;;;;;;4991116;28;20053;-66
2022/03/29 01:12:38;;;;;;;26.17;17.38;;;;;;;;;;4991841;28;20089;-66
2022/03/29 01:15:09;;;;;;;26.30;17.88;;;;;;;;;;4992396;28;20043;-66
2022/03/29 01:17:39;;;;;;;24.33;17.63;;;;;;;;;;4992175;28;20043;-66
2022/03/29 01:20:19;;;;;;;29.77;18.35;;;;;;;;;;4991732;28;20038;-66
2022/03/29 01:22:46;;;;;;;26.85;16.58;;;;;;;;;;4991305;28;20392;-66
2022/03/29 01:25:16;;;;;;;26.67;17.58;;;;;;;;;;4991067;28;20054;-66
2022/03/29 01:27:44;;;;;;;25.63;16.55;;;;;;;;;;4971695;28;20046;-66
2022/03/29 01:30:10;;;;;;;27.98;17.65;;;;;;;;;;4973132;28;20047;-66
2022/03/29 01:32:39;;;;;;;28.52;16.73;;;;;;;;;;4972434;28;20068;-66
2022/03/29 01:35:06;;;;;;;29.27;17.58;;;;;;;;;;4972629;28;20103;-66
2022/03/29 01:37:32;;;;;;;29.33;16.83;;;;;;;;;;4972441;28;20050;-66
2022/03/29 01:39:58;;;;;;;26.10;15.90;;;;;;;;;;4972801;28;20500;-66
2022/03/29 01:42:25;;;;;;;28.00;16.77;;;;;;;;;;4972746;28;20046;-66
2022/03/29 01:44:51;;;;;;;22.63;16.15;;;;;;;;;;4974110;28;20059;-66
2022/03/29 01:47:21;;;;;;;25.23;15.25;;;;;;;;;;4976573;28;20038;-66
2022/03/29 01:49:47;;;;;;;26.45;16.40;;;;;;;;;;4976189;28;20481;-66
2022/03/29 01:52:14;;;;;;;24.98;15.85;;;;;;;;;;4976315;28;20744;-66
2022/03/29 01:54:40;;;;;;;22.45;15.10;;;;;;;;;;4976439;28;20070;-66
2022/03/29 01:57:06;;;;;;;24.55;16.35;;;;;;;;;;4974224;28;20117;-66
2022/03/29 02:00:30;;;;;;;26.23;16.05;;;;;;;;;;4976238;28;20061;-66
2022/03/29 02:02:18;;;;;;;23.65;15.25;;;;;;;;;;4975231;28;20047;-66
2022/03/29 02:04:44;;;;;;;28.15;16.25;;;;;;;;;;4975926;28;20046;-66
2022/03/29 02:07:11;;;;;;;27.20;16.70;;;;;;;;;;4975900;28;20038;-66
2022/03/29 02:09:37;;;;;;;25.17;15.95;;;;;;;;;;4975866;28;20086;-66
2022/03/29 02:12:05;;;;;;;24.70;16.35;;;;;;;;;;4976162;28;20477;-66
2022/03/29 02:14:34;;;;;;;25.92;15.65;;;;;;;;;;4976026;28;20075;-66
2022/03/29 02:17:01;;;;;;;27.05;17.25;;;;;;;;;;4974189;28;20125;-66
2022/03/29 02:19:27;;;;;;;29.65;15.93;;;;;;;;;;4974437;28;20039;-66
2022/03/29 02:21:53;;;;;;;27.67;16.92;;;;;;;;;;4975818;28;20045;-66
2022/03/29 02:24:19;;;;;;;29.13;16.88;;;;;;;;;;4974681;28;20054;-66
2022/03/29 02:26:46;;;;;;;25.48;16.08;;;;;;;;;;4988631;28;20046;-66
2022/03/29 02:29:12;;;;;;;30.85;18.52;;;;;;;;;;4995152;28;20046;-66
2022/03/29 02:31:38;;;;;;;29.83;18.42;;;;;;;;;;4995243;28;20058;-66
2022/03/29 02:34:04;;;;;;;31.52;17.90;;;;;;;;;;4994209;28;20048;-66
2022/03/29 02:36:30;;;;;;;31.17;18.25;;;;;;;;;;4993782;28;20043;-66
2022/03/29 02:38:56;;;;;;;30.77;17.90;;;;;;;;;;4995129;28;20042;-66
2022/03/29 02:41:22;;;;;;;32.90;18.23;;;;;;;;;;4994373;28;20503;-66
2022/03/29 02:43:48;;;;;;;28.77;17.83;;;;;;;;;;4994604;28;20046;-66
2022/03/29 02:46:15;;;;;;;24.85;17.02;;;;;;;;;;4994676;28;20045;-66
2022/03/29 02:48:41;;;;;;;27.77;17.73;;;;;;;;;;4993180;28;20092;-66
2022/03/29 02:51:07;;;;;;;31.23;17.90;;;;;;;;;;4994634;28;20038;-66
2022/03/29 02:53:33;;;;;;;28.10;18.10;;;;;;;;;;4994917;28;20050;-66
2022/03/29 02:55:59;;;;;;;33.83;18.42;;;;;;;;;;4992118;28;20173;-66
2022/03/29 02:58:25;;;;;;;30.98;18.45;;;;;;;;;;4993307;28;20461;-66
2022/03/29 03:00:52;;;;;;;29.63;18.15;;;;;;;;;;4994290;28;20049;-66
2022/03/29 03:03:18;;;;;;;28.42;17.42;;;;;;;;;;4994087;28;20473;-66
2022/03/29 03:05:45;;;;;;;29.98;18.15;;;;;;;;;;4994307;28;20432;-66
2022/03/29 03:08:13;;;;;;;32.83;19.27;;;;;;;;;;4994525;28;20070;-66
2022/03/29 03:10:39;;;;;;;32.17;18.80;;;;;;;;;;4993926;28;20046;-66
2022/03/29 03:13:05;;;;;;;34.67;19.35;;;;;;;;;;4994404;28;20122;-66
2022/03/29 03:15:31;;;;;;;31.33;18.50;;;;;;;;;;4994506;28;20047;-66
2022/03/29 03:17:58;;;;;;;30.48;18.77;;;;;;;;;;4992494;28;20046;-66
2022/03/29 03:20:26;;;;;;;32.65;18.58;;;;;;;;;;4994253;28;20039;-66
2022/03/29 03:22:52;;;;;;;30.08;18.58;;;;;;;;;;4994277;28;20050;-66
2022/03/29 03:25:19;;;;;;;32.25;18.73;;;;;;;;;;4991865;28;20448;-66
2022/03/29 03:27:45;;;;;;;31.60;18.65;;;;;;;;;;4974608;28;20054;-66
2022/03/29 03:30:12;;;;;;;31.80;19.10;;;;;;;;;;4974954;28;20054;-66
2022/03/29 03:32:39;;;;;;;31.92;18.80;;;;;;;;;;4973089;28;20500;-66
2022/03/29 03:35:05;;;;;;;33.30;19.20;;;;;;;;;;4974535;28;20466;-66
2022/03/29 03:37:33;;;;;;;30.15;18.00;;;;;;;;;;4974471;28;20038;-66
2022/03/29 03:39:59;;;;;;;32.40;19.55;;;;;;;;;;4972536;28;20046;-66
2022/03/29 03:42:25;;;;;;;38.03;19.60;;;;;;;;;;4973103;28;20042;-66
2022/03/29 03:44:51;;;;;;;31.50;18.95;;;;;;;;;;4974167;28;20094;-67
2022/03/29 03:47:17;;;;;;;30.60;18.85;;;;;;;;;;4973918;28;20042;-67
2022/03/29 03:49:43;;;;;;;32.85;19.20;;;;;;;;;;4974521;28;20042;-66
2022/03/29 03:52:09;;;;;;;30.08;18.80;;;;;;;;;;4972854;28;20057;-67
2022/03/29 03:54:37;;;;;;;33.22;19.58;;;;;;;;;;4973502;28;20047;-66
2022/03/29 03:57:04;;;;;;;30.52;18.70;;;;;;;;;;4974022;28;20042;-66
2022/03/29 03:59:30;;;;;;;30.45;19.02;;;;;;;;;;4972669;28;20389;-66
2022/03/29 04:01:56;;;;;;;33.85;19.83;;;;;;;;;;4971779;28;20054;-66
2022/03/29 04:04:24;;;;;;;33.67;18.92;;;;;;;;;;4973985;28;20043;-67
2022/03/29 04:06:51;;;;;;;33.45;18.25;;;;;;;;;;4972013;28;20474;-67
2022/03/29 04:09:17;;;;;;;34.05;19.02;;;;;;;;;;4971889;28;20051;-67
2022/03/29 04:11:44;;;;;;;33.72;19.90;;;;;;;;;;4973714;28;20489;-67
2022/03/29 04:14:10;;;;;;;31.90;18.42;;;;;;;;;;4973689;28;20043;-67
2022/03/29 04:16:36;;;;;;;30.23;18.70;;;;;;;;;;4972012;28;20077;-67
2022/03/29 04:19:07;;;;;;;34.22;19.88;;;;;;;;;;4973415;28;20042;-67
2022/03/29 04:21:33;;;;;;;34.70;20.27;;;;;;;;;;4973702;28;20074;-67
2022/03/29 04:24:00;;;;;;;32.55;19.35;;;;;;;;;;4971776;28;20046;-66
2022/03/29 04:26:26;;;;;;;31.73;18.67;;;;;;;;;;4984162;28;20512;-66
2022/03/29 04:28:52;;;;;;;36.88;20.17;;;;;;;;;;4975387;28;20050;-66
2022/03/29 04:31:18;;;;;;;33.70;20.08;;;;;;;;;;4991180;28;20050;-66
2022/03/29 04:33:45;;;;;;;31.25;18.35;;;;;;;;;;4992982;28;20089;-66
2022/03/29 04:36:12;;;;;;;32.03;19.40;;;;;;;;;;4992919;28;20057;-66
2022/03/29 04:38:38;;;;;;;37.63;18.85;;;;;;;;;;4991950;28;20052;-66
2022/03/29 04:41:05;;;;;;;34.28;19.13;;;;;;;;;;4992479;28;20046;-66
2022/03/29 04:43:31;;;;;;;34.00;19.10;;;;;;;;;;4992710;28;20069;-66
2022/03/29 04:45:57;;;;;;;31.50;19.48;;;;;;;;;;4992443;28;20061;-66
2022/03/29 04:48:23;;;;;;;32.85;19.75;;;;;;;;;;4992746;28;20042;-66
2022/03/29 04:50:49;;;;;;;35.97;18.17;;;;;;;;;;4992561;28;20042;-66
2022/03/29 04:53:15;;;;;;;35.03;19.33;;;;;;;;;;4992151;28;20480;-66
2022/03/29 04:55:41;;;;;;;34.97;19.40;;;;;;;;;;4992409;28;20043;-66
2022/03/29 04:58:07;;;;;;;34.63;19.05;;;;;;;;;;4992360;28;20065;-66
2022/03/29 05:00:34;;;;;;;30.90;17.60;;;;;;;;;;4991918;28;20095;-66
2022/03/29 05:03:00;;;;;;;33.15;18.60;;;;;;;;;;4992612;28;20450;-66
2022/03/29 05:05:26;;;;;;;34.42;20.25;;;;;;;;;;4992386;28;20125;-66
2022/03/29 05:07:52;;;;;;;32.08;18.60;;;;;;;;;;4991972;28;20170;-66
2022/03/29 05:10:18;;;;;;;39.72;19.33;;;;;;;;;;4992357;28;20118;-66
2022/03/29 05:12:49;;;;;;;32.65;19.50;;;;;;;;;;4991214;28;20056;-66
2022/03/29 05:15:16;;;;;;;36.20;18.27;;;;;;;;;;4990283;28;20078;-66
2022/03/29 05:17:42;;;;;;;35.97;19.70;;;;;;;;;;4992087;28;20044;-66
2022/03/29 05:20:10;;;;;;;32.55;18.08;;;;;;;;;;4995648;28;20046;-66
2022/03/29 05:22:43;;;;;;;31.73;19.15;;;;;;;;;;4995978;28;20373;-66
2022/03/29 05:25:09;;;;;;;36.33;19.77;;;;;;;;;;4994537;28;20042;-66
2022/03/29 05:27:35;;;;;;;37.25;19.83;;;;;;;;;;4976755;28;20533;-66
2022/03/29 05:30:01;;;;;;;29.95;18.67;;;;;;;;;;4976192;28;20072;-66
2022/03/29 05:32:27;;;;;;;36.10;18.98;;;;;;;;;;4976384;28;20493;-66
2022/03/29 05:34:53;;;;;;;35.97;20.30;;;;;;;;;;4976706;28;20281;-66
2022/03/29 05:37:19;;;;;;;35.58;19.88;;;;;;;;;;4975987;28;20046;-66
2022/03/29 05:39:45;;;;;;;37.08;19.02;;;;;;;;;;4976749;28;20038;-66
2022/03/29 05:42:12;;;;;;;40.22;19.25;;;;;;;;;;4976289;28;20043;-66
2022/03/29 05:44:39;;;;;;;38.78;20.92;;;;;;;;;;4974410;28;20101;-66
2022/03/29 05:49:50;;;;;;;40.17;21.55;;;;;;;;;;4974950;28;20051;-66
2022/03/29 05:52:16;;;;;;;40.42;21.58;;;;;;;;;;4973873;28;20042;-66
2022/03/29 05:54:45;;;;;;;40.03;21.10;;;;;;;;;;4975911;28;20046;-66
2022/03/29 05:57:14;;;;;;;39.42;20.88;;;;;;;;;;4976075;28;20081;-66
2022/03/29 05:59:42;;;;;;;37.67;20.63;;;;;;;;;;4974148;28;20405;-66
2022/03/29 06:02:08;;;;;;;43.80;21.35;;;;;;;;;;4976245;28;20042;-66
2022/03/29 06:04:35;;;;;;;37.13;19.50;;;;;;;;;;4976175;28;20462;-66
2022/03/29 06:07:02;;;;;;;40.60;20.42;;;;;;;;;;4975211;28;20046;-66
2022/03/29 06:09:28;;;;;;;40.47;20.60;;;;;;;;;;4976045;28;20043;-66
2022/03/29 06:11:54;;;;;;;38.88;20.13;;;;;;;;;;4975313;28;20131;-66
2022/03/29 06:14:20;;;;;;;37.47;20.05;;;;;;;;;;4975634;28;20096;-66
2022/03/29 06:16:46;;;;;;;40.13;19.75;;;;;;;;;;4975935;28;20050;-66
2022/03/29 06:19:19;;;;;;;37.33;20.27;;;;;;;;;;4975968;28;20088;-66
2022/03/29 06:21:45;;;;;;;40.40;20.70;;;;;;;;;;4973275;28;20046;-65
2022/03/29 06:24:11;;;;;;;43.70;21.67;;;;;;;;;;4975290;28;20043;-66
2022/03/29 06:26:39;;;;;;;39.22;19.70;;;;;;;;;;4987743;28;20124;-66
2022/03/29 06:29:08;;;;;;;39.25;21.02;;;;;;;;;;4992347;28;20141;-66
2022/03/29 06:31:34;;;;;;;35.83;19.58;;;;;;;;;;4971861;28;20228;-65
2022/03/29 06:34:01;;;;;;;41.17;20.95;;;;;;;;;;4974342;28;20050;-68
2022/03/29 06:36:27;;;;;;;40.85;21.08;;;;;;;;;;4983185;28;20658;-70
2022/03/29 06:38:53;;;;;;;42.22;20.02;;;;;;;;;;4981876;28;20053;-71
2022/03/29 06:41:21;;;;;;;44.22;20.95;;;;;;;;;;4992947;28;20112;-69
2022/03/29 06:43:47;;;;;;;43.25;21.85;;;;;;;;;;4993082;28;20705;-70
2022/03/29 06:46:13;;;;;;;42.17;21.25;;;;;;;;;;4986913;28;20050;-70
2022/03/29 06:48:44;;;;;;;45.78;21.33;;;;;;;;;;4992890;28;20042;-67
2022/03/29 06:51:12;;;;;;;40.90;20.85;;;;;;;;;;4982128;28;20113;-67
2022/03/29 06:53:39;;;;;;;45.38;21.25;;;;;;;;;;4992975;28;20046;-65
2022/03/29 06:56:05;;;;;;;41.47;19.85;;;;;;;;;;4992148;28;20050;-64
2022/03/29 06:58:32;;;;;;;42.63;20.70;;;;;;;;;;4992800;28;20034;-62
2022/03/29 07:00:58;;;;;;;44.30;20.58;;;;;;;;;;4993691;28;20575;-64
2022/03/29 07:03:24;;;;;;;39.28;20.60;;;;;;;;;;4993587;28;20448;-64
2022/03/29 07:05:50;;;;;;;43.13;20.70;;;;;;;;;;4993310;28;20073;-63
2022/03/29 07:08:20;;;;;;;41.17;20.10;;;;;;;;;;4992358;28;20046;-63
2022/03/29 07:13:31;;;;;;;44.83;21.27;;;;;;;;;;4973067;28;20136;-66
2022/03/29 07:15:57;;;;;;;38.70;20.17;;;;;;;;;;4974182;28;20473;-67
2022/03/29 07:18:23;;;;;;;48.75;22.35;;;;;;;;;;4973833;28;20038;-65
2022/03/29 07:20:49;;;;;;;49.88;22.00;;;;;;;;;;4972807;28;20473;-68
2022/03/29 07:23:15;;;;;;;41.97;20.23;;;;;;;;;;4973205;28;20035;-67
2022/03/29 07:25:41;;;;;;;42.17;20.10;;;;;;;;;;4973321;28;20436;-68
2022/03/29 07:28:11;;;;;;;45.88;21.20;;;;;;;;;;4972819;28;20101;-67
2022/03/29 07:30:38;;;;;;;40.80;20.55;;;;;;;;;;4976747;28;20121;-67
2022/03/29 07:33:04;;;;;;;42.05;20.25;;;;;;;;;;4993181;28;20092;-67
2022/03/29 07:35:31;;;;;;;42.97;21.48;;;;;;;;;;4972944;28;20043;-66
2022/03/29 07:37:58;;;;;;;47.20;22.20;;;;;;;;;;4978687;28;20057;-66
2022/03/29 07:40:25;;;;;;;41.83;21.17;;;;;;;;;;4973297;28;20122;-66
2022/03/29 07:42:52;;;;;;;44.28;22.88;;;;;;;;;;4972923;28;20038;-64
2022/03/29 07:45:19;;;;;;;46.15;22.58;;;;;;;;;;4981803;28;20054;-64
2022/03/29 07:47:48;;;;;;;45.70;22.17;;;;;;;;;;4981307;28;20061;-65
2022/03/29 07:50:14;;;;;;;46.35;23.75;;;;;;;;;;4976316;28;20126;-65
2022/03/29 07:52:42;;;;;;;47.00;22.73;;;;;;;;;;4991941;28;20703;-64
2022/03/29 07:55:09;;;;;;;53.47;25.42;;;;;;;;;;4985856;28;20038;-65
2022/03/29 07:57:36;;;;;;;46.95;25.13;;;;;;;;;;4987131;28;20401;-66
2022/03/29 08:00:31;;;;;;;47.53;24.33;;;;;;;;;;4984709;28;20093;-66
2022/03/29 08:02:49;;;;;;;45.80;24.10;;;;;;;;;;4982511;28;20050;-68
2022/03/29 08:05:15;;;;;;;49.88;24.77;;;;;;;;;;4997806;28;20046;-67
2022/03/29 08:07:41;;;;;;;42.28;24.52;;;;;;;;;;4984986;28;20096;-67
2022/03/29 08:10:07;;;;;;;46.28;23.05;;;;;;;;;;4982855;28;20043;-65
2022/03/29 08:12:34;;;;;;;45.83;22.40;;;;;;;;;;4971976;28;20537;-66
2022/03/29 08:15:00;;;;;;;43.97;22.33;;;;;;;;;;4971040;28;20068;-67
2022/03/29 08:17:26;;;;;;;41.03;21.80;;;;;;;;;;4971538;28;20093;-68
2022/03/29 08:19:52;;;;;;;46.67;22.77;;;;;;;;;;4971608;28;20114;-66
2022/03/29 08:22:19;;;;;;;48.13;22.73;;;;;;;;;;4972009;28;20073;-66
2022/03/29 08:24:45;;;;;;;45.20;23.58;;;;;;;;;;4970986;28;20047;-67
2022/03/29 08:27:11;;;;;;;43.15;22.08;;;;;;;;;;4992655;28;20053;-67
2022/03/29 08:29:38;;;;;;;41.53;20.92;;;;;;;;;;4991173;28;20050;-68
2022/03/29 08:32:04;;;;;;;44.70;23.15;;;;;;;;;;4970702;28;20576;-64
2022/03/29 08:34:31;;;;;;;45.20;21.75;;;;;;;;;;4978916;28;20050;-65
2022/03/29 08:36:57;;;;;;;42.45;21.15;;;;;;;;;;4984376;28;20066;-66
2022/03/29 08:39:23;;;;;;;48.15;22.42;;;;;;;;;;4973633;28;20544;-64
2022/03/29 08:42:02;;;;;;;41.85;21.08;;;;;;;;;;4971729;28;20047;-63
2022/03/29 08:44:29;;;;;;;43.80;21.45;;;;;;;;;;4971790;28;20117;-64
2022/03/29 08:46:56;;;;;;;41.80;19.88;;;;;;;;;;4971997;28;20065;-63
2022/03/29 08:49:22;;;;;;;40.42;19.50;;;;;;;;;;4971634;28;20520;-65
2022/03/29 08:51:50;;;;;;;41.40;20.65;;;;;;;;;;4971009;28;20050;-65
2022/03/29 08:54:16;;;;;;;46.75;20.40;;;;;;;;;;4979865;28;20388;-67
2022/03/29 08:56:42;;;;;;;38.60;19.15;;;;;;;;;;4971062;28;20038;-67
2022/03/29 08:59:08;;;;;;;38.65;18.25;;;;;;;;;;4981880;28;20073;-66
2022/03/29 09:01:34;;;;;;;41.42;19.42;;;;;;;;;;4998345;28;20089;-66
2022/03/29 09:04:08;;;;;;;41.45;18.10;;;;;;;;;;4976658;28;20038;-64
2022/03/29 09:07:00;;;;;;;41.55;18.52;;;;;;;;;;4974701;28;20053;-66
2022/03/29 09:09:33;;;;;;;40.13;17.08;;;;;;;;;;4988306;28;20101;-66
2022/03/29 09:12:00;;;;;;;45.45;19.52;;;;;;;;;;4970090;28;20410;-68
2022/03/29 09:14:29;;;;;;;39.53;17.90;;;;;;;;;;4971648;28;20398;-67
2022/03/29 09:16:55;;;;;;;35.22;16.92;;;;;;;;;;4991319;28;20038;-65
2022/03/29 09:19:23;;;;;;;37.28;19.23;;;;;;;;;;4991884;28;20500;-65
2022/03/29 09:21:51;;;;;;;38.75;17.95;;;;;;;;;;4971804;28;20046;-66
2022/03/29 09:24:18;;;;;;;42.03;18.45;;;;;;;;;;4970766;28;20051;-67
2022/03/29 09:26:52;;;;;;;36.40;17.38;;;;;;;;;;4972173;28;20113;-68
2022/03/29 09:29:20;;;;;;;46.80;19.23;;;;;;;;;;4970167;28;20074;-68
2022/03/29 09:31:47;;;;;;;39.05;19.92;;;;;;;;;;4981986;28;20476;-67
2022/03/29 09:34:20;;;;;;;34.80;18.25;;;;;;;;;;4982688;28;20047;-65
2022/03/29 09:36:48;;;;;;;42.47;20.35;;;;;;;;;;4970974;28;20386;-65
2022/03/29 09:39:34;;;;;;;39.47;18.35;;;;;;;;;;4971053;28;20533;-66
2022/03/29 09:42:03;;;;;;;38.97;19.73;;;;;;;;;;4960296;28;20686;-66
2022/03/29 09:44:36;;;;;;;43.00;20.23;;;;;;;;;;4971009;28;20379;-67
2022/03/29 09:47:04;;;;;;;37.55;19.58;;;;;;;;;;4979755;28;20138;-65
2022/03/29 09:49:31;;;;;;;40.45;20.20;;;;;;;;;;4971127;28;20078;-69
2022/03/29 09:52:15;;;;;;;39.30;19.75;;;;;;;;;;4971906;28;20577;-67
2022/03/29 09:54:41;;;;;;;44.83;19.70;;;;;;;;;;4971258;28;20413;-68
2022/03/29 09:57:07;;;;;;;40.58;19.23;;;;;;;;;;4971307;28;20047;-66
2022/03/29 09:59:34;;;;;;;37.92;18.77;;;;;;;;;;4979652;28;20042;-67
2022/03/29 10:02:00;;;;;;;38.90;18.55;;;;;;;;;;4986330;28;20630;-67
2022/03/29 10:04:29;;;;;;;36.22;19.98;;;;;;;;;;4971231;28;20043;-66
2022/03/29 10:06:59;;;;;;;35.33;19.70;;;;;;;;;;4976347;28;20097;-66
2022/03/29 10:09:30;;;;;;;34.35;19.38;;;;;;;;;;4975313;28;20049;-67
2022/03/29 10:11:58;;;;;;;37.05;19.50;;;;;;;;;;4974324;28;20074;-67
2022/03/29 10:14:25;;;;;;;39.55;19.50;;;;;;;;;;4956929;28;20058;-66
2022/03/29 10:16:52;;;;;;;37.53;19.35;;;;;;;;;;4975309;28;20045;-66
2022/03/29 10:19:19;;;;;;;40.50;19.17;;;;;;;;;;4987270;28;20116;-68
2022/03/29 10:21:46;;;;;;;36.17;18.48;;;;;;;;;;4984432;28;20096;-66
2022/03/29 10:24:15;;;;;;;36.63;17.60;;;;;;;;;;4991989;28;20428;-66
2022/03/29 10:26:46;;;;;;;33.15;17.15;;;;;;;;;;4979560;28;20062;-63
2022/03/29 10:29:13;;;;;;;39.47;18.92;;;;;;;;;;4984998;28;20034;-66
2022/03/29 10:31:49;;;;;;;35.80;18.10;;;;;;;;;;4987764;28;20038;-65
2022/03/29 10:34:39;;;;;;;35.72;18.55;;;;;;;;;;4980049;28;20061;-65
2022/03/29 10:37:10;;;;;;;37.35;17.52;;;;;;;;;;4974635;28;20046;-66
2022/03/29 10:40:04;;;;;;;32.75;18.13;;;;;;;;;;4989316;28;20046;-65
2022/03/29 10:42:30;;;;;;;29.73;17.70;;;;;;;;;;4983532;28;20058;-65
2022/03/29 10:45:13;;;;;;;33.50;18.25;;;;;;;;;;4975025;28;20652;-66
2022/03/29 10:47:40;;;;;;;34.00;17.95;;;;;;;;;;4982508;28;20097;-65
2022/03/29 10:50:07;;;;;;;38.17;19.05;;;;;;;;;;4982511;28;20062;-65
2022/03/29 10:52:50;;;;;;;31.83;18.42;;;;;;;;;;4974410;28;20042;-66
2022/03/29 10:55:17;;;;;;;31.33;17.67;;;;;;;;;;4982513;28;20053;-65
2022/03/29 10:58:03;;;;;;;38.63;19.33;;;;;;;;;;4971905;28;20042;-65
2022/03/29 11:00:31;;;;;;;31.88;18.27;;;;;;;;;;4966653;28;20051;-65
2022/03/29 11:03:14;;;;;;;29.05;17.30;;;;;;;;;;4988609;28;20049;-65
2022/03/29 11:05:58;;;;;;;31.83;18.42;;;;;;;;;;4976148;28;20042;-66
2022/03/29 11:08:25;;;;;;;31.60;17.00;;;;;;;;;;4973078;28;20118;-66
2022/03/29 11:10:51;;;;;;;31.70;17.35;;;;;;;;;;4972573;28;20050;-66
2022/03/29 11:13:26;;;;;;;32.63;18.02;;;;;;;;;;4973849;28;20397;-67
2022/03/29 11:15:53;;;;;;;26.52;16.65;;;;;;;;;;4973314;28;20182;-66
2022/03/29 11:18:45;;;;;;;32.30;18.13;;;;;;;;;;4994731;28;20046;-66
2022/03/29 11:21:27;;;;;;;31.27;17.27;;;;;;;;;;4987370;28;20133;-65
2022/03/29 11:23:53;;;;;;;29.08;16.77;;;;;;;;;;4979802;28;20125;-65
2022/03/29 11:26:19;;;;;;;30.77;16.73;;;;;;;;;;4985497;28;20562;-65
2022/03/29 11:28:49;;;;;;;30.48;16.67;;;;;;;;;;4972229;28;20046;-66
2022/03/29 11:31:16;;;;;;;29.63;15.98;;;;;;;;;;4982942;28;20591;-66
2022/03/29 11:33:43;;;;;;;33.42;16.70;;;;;;;;;;4985997;28;20488;-65
2022/03/29 11:36:11;;;;;;;33.17;16.85;;;;;;;;;;4986891;28;20042;-66
2022/03/29 11:38:37;;;;;;;28.92;16.02;;;;;;;;;;4978303;28;20046;-65
2022/03/29 11:41:04;;;;;;;26.80;16.08;;;;;;;;;;4975558;28;20047;-67
2022/03/29 11:43:30;;;;;;;25.55;14.68;;;;;;;;;;4978488;28;20785;-66
2022/03/29 11:45:57;;;;;;;35.45;16.08;;;;;;;;;;4985039;28;20066;-65
2022/03/29 11:48:25;;;;;;;32.70;16.88;;;;;;;;;;5021212;28;20380;-65
2022/03/29 11:50:53;;;;;;;34.85;16.88;;;;;;;;;;4981800;28;20058;-65
2022/03/29 11:53:20;;;;;;;31.48;15.95;;;;;;;;;;4973128;28;20066;-65
2022/03/29 11:56:00;;;;;;;28.50;16.00;;;;;;;;;;4974269;28;20396;-66
2022/03/29 11:58:29;;;;;;;29.17;16.13;;;;;;;;;;4981566;28;20047;-64
2022/03/29 12:01:03;;;;;;;27.35;15.02;;;;;;;;;;4973936;28;20555;-66
2022/03/29 12:03:36;;;;;;;28.65;15.00;;;;;;;;;;4983962;28;20113;-66
2022/03/29 12:06:06;;;;;;;33.95;16.80;;;;;;;;;;4981365;28;20042;-65
2022/03/29 12:08:47;;;;;;;32.70;16.67;;;;;;;;;;4987575;28;20053;-65
2022/03/29 12:11:13;;;;;;;29.95;15.50;;;;;;;;;;4989979;28;20057;-65
2022/03/29 12:13:40;;;;;;;30.55;14.90;;;;;;;;;;4992209;28;20068;-65
2022/03/29 12:16:25;;;;;;;30.95;15.60;;;;;;;;;;4986954;28;20046;-66
2022/03/29 12:18:52;;;;;;;33.25;16.52;;;;;;;;;;4977213;28;20089;-66
2022/03/29 12:21:20;;;;;;;28.98;14.80;;;;;;;;;;4970972;28;20113;-66
2022/03/29 12:23:47;;;;;;;25.50;14.30;;;;;;;;;;4975119;28;20046;-65
2022/03/29 12:26:13;;;;;;;30.85;14.80;;;;;;;;;;4980190;28;20051;-63
2022/03/29 12:28:41;;;;;;;25.25;13.40;;;;;;;;;;4986149;28;20046;-64
2022/03/29 12:31:14;;;;;;;22.10;13.98;;;;;;;;;;4979578;28;20141;-63
2022/03/29 12:33:40;;;;;;;28.60;13.45;;;;;;;;;;4990690;28;20042;-65
2022/03/29 12:36:08;;;;;;;27.23;14.48;;;;;;;;;;4986276;28;20046;-68
2022/03/29 12:38:41;;;;;;;26.00;13.70;;;;;;;;;;4982046;28;20433;-66
2022/03/29 12:41:08;;;;;;;27.25;13.75;;;;;;;;;;4988190;28;20042;-66
2022/03/29 12:43:35;;;;;;;31.20;13.35;;;;;;;;;;4990570;28;20433;-66
2022/03/29 12:46:02;;;;;;;26.15;13.98;;;;;;;;;;4990226;28;20114;-64
2022/03/29 12:48:29;;;;;;;25.33;13.30;;;;;;;;;;4992720;28;20416;-65
2022/03/29 12:50:55;;;;;;;19.77;12.15;;;;;;;;;;4988535;28;20113;-64
2022/03/29 12:53:21;;;;;;;25.45;12.82;;;;;;;;;;4988589;28;20440;-63
2022/03/29 12:55:55;;;;;;;24.83;11.73;;;;;;;;;;4979486;28;20053;-67
2022/03/29 12:58:31;;;;;;;20.95;10.77;;;;;;;;;;4973367;28;20098;-64
2022/03/29 13:00:57;;;;;;;21.40;10.75;;;;;;;;;;4989012;28;20093;-67
2022/03/29 13:03:23;;;;;;;25.10;11.55;;;;;;;;;;4985769;28;20051;-67
2022/03/29 13:05:49;;;;;;;21.00;11.52;;;;;;;;;;4989953;28;20089;-67
2022/03/29 13:08:23;;;;;;;23.33;12.10;;;;;;;;;;4979584;28;20054;-67
2022/03/29 13:10:52;;;;;;;24.15;11.68;;;;;;;;;;4972116;28;20043;-68
2022/03/29 13:13:25;;;;;;;27.88;12.57;;;;;;;;;;4989369;28;20080;-66
2022/03/29 13:15:51;;;;;;;23.95;10.98;;;;;;;;;;4976304;28;20117;-64
2022/03/29 13:18:28;;;;;;;24.48;11.65;;;;;;;;;;4994167;28;20051;-65
2022/03/29 13:21:05;;;;;;;26.55;11.65;;;;;;;;;;4985591;28;20051;-66
2022/03/29 13:23:32;;;;;;;25.05;11.93;;;;;;;;;;4985122;28;20031;-66
2022/03/29 13:25:58;;;;;;;20.60;11.27;;;;;;;;;;4971045;28;20054;-66
2022/03/29 13:28:26;;;;;;;23.58;10.88;;;;;;;;;;4988240;28;20050;-64
2022/03/29 13:30:53;;;;;;;24.92;11.30;;;;;;;;;;4984359;28;20117;-63
2022/03/29 13:33:19;;;;;;;22.95;10.00;;;;;;;;;;4980861;28;20542;-63
2022/03/29 13:35:52;;;;;;;21.92;10.65;;;;;;;;;;4973854;28;20046;-64
2022/03/29 13:38:19;;;;;;;23.48;11.00;;;;;;;;;;4987515;28;20033;-64
2022/03/29 13:40:45;;;;;;;27.33;11.73;;;;;;;;;;4991185;28;20038;-64
2022/03/29 13:43:11;;;;;;;20.73;10.50;;;;;;;;;;4987097;28;20130;-62
2022/03/29 13:45:38;;;;;;;21.10;10.07;;;;;;;;;;4990777;28;20400;-62
2022/03/29 13:48:04;;;;;;;23.88;10.10;;;;;;;;;;4983423;28;20048;-63
2022/03/29 13:50:31;;;;;;;22.73;10.43;;;;;;;;;;4984941;28;20069;-63
2022/03/29 13:52:57;;;;;;;21.23;9.93;;;;;;;;;;4990086;28;20081;-63
2022/03/29 13:55:24;;;;;;;19.75;9.75;;;;;;;;;;4986943;28;20038;-69
2022/03/29 13:57:50;;;;;;;20.35;9.98;;;;;;;;;;4987063;28;20065;-67
2022/03/29 14:00:17;;;;;;;19.10;8.80;;;;;;;;;;4992457;28;20039;-69
2022/03/29 14:02:43;;;;;;;19.08;9.52;;;;;;;;;;4984190;28;20093;-67
2022/03/29 14:05:10;;;;;;;24.48;9.38;;;;;;;;;;4982856;28;20088;-66
2022/03/29 14:07:36;;;;;;;20.50;9.20;;;;;;;;;;4989749;28;20043;-66
2022/03/29 14:10:02;;;;;;;18.52;8.82;;;;;;;;;;4994381;28;20567;-68
2022/03/29 14:12:28;;;;;;;19.58;9.52;;;;;;;;;;4985430;28;20129;-67
2022/03/29 14:14:54;;;;;;;21.33;8.52;;;;;;;;;;4973183;28;20046;-68
2022/03/29 14:17:20;;;;;;;20.58;8.73;;;;;;;;;;4976843;28;20041;-66
2022/03/29 14:19:50;;;;;;;21.73;7.85;;;;;;;;;;4976829;28;20512;-67
2022/03/29 14:22:16;;;;;;;16.08;8.00;;;;;;;;;;4981950;28;20052;-67
2022/03/29 14:24:43;;;;;;;19.48;8.27;;;;;;;;;;4976772;28;20046;-68
2022/03/29 14:27:09;;;;;;;20.02;8.93;;;;;;;;;;4988223;28;20076;-66
2022/03/29 14:29:35;;;;;;;16.33;8.45;;;;;;;;;;4993364;28;20046;-65